createdAt,value
2019-03-15T00:00:07.826Z,11.70
2019-03-15T00:05:05.848Z,11.73
2019-03-15T00:07:34.499Z,21.45
2019-03-15T00:10:03.595Z,22.50
2019-03-15T00:12:32.385Z,15.32
2019-03-15T00:15:01.275Z,16.77
2019-03-15T00:17:30.166Z,12.23
2019-03-15T00:19:58.857Z,12.33
2019-03-15T00:22:27.748Z,15.48
2019-03-15T00:24:56.530Z,14.80
2019-03-15T00:27:25.320Z,15.95
2019-03-15T00:29:54.112Z,13.00
2019-03-15T00:32:22.895Z,12.53
2019-03-15T00:34:51.680Z,11.93
2019-03-15T00:37:20.469Z,14.95
2019-03-15T00:39:49.470Z,8.68
2019-03-15T00:42:18.255Z,13.50
2019-03-15T00:44:47.042Z,14.98
2019-03-15T00:47:15.829Z,18.52
2019-03-15T00:49:44.707Z,15.68
2019-03-15T00:52:13.608Z,13.98
2019-03-15T00:54:42.500Z,16.52
2019-03-15T00:57:11.392Z,14.33
2019-03-15T00:59:40.278Z,14.85
2019-03-15T01:02:09.072Z,16.48
2019-03-15T01:04:37.855Z,16.77
2019-03-15T01:07:06.647Z,18.32
2019-03-15T01:09:35.533Z,18.75
2019-03-15T01:12:04.422Z,15.70
2019-03-15T01:14:33.210Z,20.15
2019-03-15T01:17:01.896Z,26.45
2019-03-15T01:19:30.686Z,12.03
2019-03-15T01:21:59.476Z,15.28
2019-03-15T01:24:28.265Z,13.25
2019-03-15T01:26:57.154Z,18.25
2019-03-15T01:29:25.943Z,18.00
2019-03-15T01:31:54.695Z,18.90
2019-03-15T01:34:23.415Z,16.85
2019-03-15T01:36:52.307Z,19.30
2019-03-15T01:39:21.194Z,17.92
2019-03-15T01:41:50.086Z,17.40
2019-03-15T01:44:18.874Z,17.73
2019-03-15T01:46:47.662Z,18.35
2019-03-15T01:49:16.859Z,19.70
2019-03-15T01:51:45.759Z,23.87
2019-03-15T01:54:14.537Z,27.82
2019-03-15T01:56:43.359Z,28.92
2019-03-15T01:59:12.217Z,23.70
2019-03-15T02:01:41.111Z,19.12
2019-03-15T02:04:10.003Z,29.57
2019-03-15T02:06:38.891Z,19.90
2019-03-15T02:09:09.290Z,22.93
2019-03-15T02:11:38.412Z,21.90
2019-03-15T02:14:07.199Z,23.87
2019-03-15T02:16:36.100Z,25.92
2019-03-15T02:19:04.982Z,26.20
2019-03-15T02:21:33.875Z,28.23
2019-03-15T02:24:03.684Z,25.62
2019-03-15T02:26:32.678Z,22.77
2019-03-15T02:29:01.568Z,22.27
2019-03-15T02:31:30.458Z,19.55
2019-03-15T02:34:00.158Z,24.75
2019-03-15T02:36:29.268Z,21.55
2019-03-15T02:38:58.053Z,17.82
2019-03-15T02:41:26.841Z,20.37
2019-03-15T02:43:55.628Z,22.55
2019-03-15T02:46:25.802Z,19.52
2019-03-15T02:48:54.941Z,18.23
2019-03-15T02:51:23.729Z,22.65
2019-03-15T02:53:52.520Z,16.42
2019-03-15T02:56:21.414Z,21.50
2019-03-15T02:58:50.197Z,17.75
2019-03-15T03:01:18.984Z,18.30
2019-03-15T03:03:47.872Z,14.23
2019-03-15T03:06:16.870Z,17.50
2019-03-15T03:08:45.559Z,20.08
2019-03-15T03:11:14.445Z,21.90
2019-03-15T03:13:43.239Z,14.98
2019-03-15T03:16:12.023Z,21.82
2019-03-15T03:18:40.705Z,19.10
2019-03-15T03:21:09.496Z,16.75
2019-03-15T03:23:38.288Z,15.23
2019-03-15T03:26:07.078Z,19.82
2019-03-15T03:28:35.965Z,21.73
2019-03-15T03:31:04.942Z,17.20
2019-03-15T03:33:33.861Z,20.90
2019-03-15T03:36:02.898Z,19.90
2019-03-15T03:38:31.932Z,17.27
2019-03-15T03:41:00.929Z,22.25
2019-03-15T03:43:29.815Z,18.05
2019-03-15T03:45:58.509Z,21.85
2019-03-15T03:48:27.289Z,18.37
2019-03-15T03:50:56.081Z,16.80
2019-03-15T03:53:24.973Z,26.68
2019-03-15T03:55:54.062Z,25.72
2019-03-15T03:58:23.062Z,21.05
2019-03-15T04:00:51.848Z,22.25
2019-03-15T04:03:20.633Z,36.00
2019-03-15T04:05:49.525Z,23.15
2019-03-15T04:08:18.413Z,20.65
2019-03-15T04:10:47.206Z,30.48
2019-03-15T04:13:16.094Z,24.02
2019-03-15T04:15:45.086Z,22.98
2019-03-15T04:18:13.876Z,28.25
2019-03-15T04:20:42.766Z,38.60
2019-03-15T04:23:11.455Z,30.80
2019-03-15T04:25:40.668Z,31.52
2019-03-15T04:28:09.744Z,27.55
2019-03-15T04:30:38.530Z,37.00
2019-03-15T04:33:07.423Z,43.80
2019-03-15T04:35:36.109Z,26.55
2019-03-15T04:38:04.998Z,27.77
2019-03-15T04:40:33.788Z,23.30
2019-03-15T04:43:02.572Z,24.37
2019-03-15T04:45:31.364Z,29.48
2019-03-15T04:48:00.251Z,32.25
2019-03-15T04:50:29.247Z,27.07
2019-03-15T04:52:58.044Z,24.47
2019-03-15T04:55:26.821Z,30.75
2019-03-15T04:57:55.610Z,23.95
2019-03-15T05:00:24.400Z,27.30
2019-03-15T05:02:53.086Z,29.18
2019-03-15T05:05:21.773Z,29.18
2019-03-15T05:07:50.555Z,27.60
2019-03-15T05:10:19.452Z,22.37
2019-03-15T05:12:48.244Z,21.48
2019-03-15T05:15:17.130Z,25.27
2019-03-15T05:17:45.922Z,16.37
2019-03-15T05:20:14.906Z,21.82
2019-03-15T05:22:43.798Z,14.43
2019-03-15T05:25:12.584Z,15.65
2019-03-15T05:27:41.372Z,12.95
2019-03-15T05:30:11.807Z,23.73
2019-03-15T05:32:40.567Z,13.93
2019-03-15T05:35:09.477Z,19.75
2019-03-15T05:37:38.265Z,13.70
2019-03-15T05:40:08.289Z,16.80
2019-03-15T05:42:37.174Z,10.98
2019-03-15T05:45:09.243Z,12.25
2019-03-15T05:47:38.026Z,12.45
2019-03-15T05:50:09.784Z,10.75
2019-03-15T05:52:38.571Z,9.60
2019-03-15T05:55:10.103Z,11.25
2019-03-15T05:57:38.994Z,10.57
2019-03-15T06:00:12.111Z,10.20
2019-03-15T06:02:41.086Z,7.95
2019-03-15T06:05:10.373Z,9.65
2019-03-15T06:07:39.186Z,9.08
2019-03-15T06:10:13.195Z,8.60
2019-03-15T06:12:41.991Z,7.00
2019-03-15T06:15:11.349Z,9.38
2019-03-15T06:17:40.175Z,8.63
2019-03-15T06:20:12.607Z,7.72
2019-03-15T06:25:12.843Z,8.53
2019-03-15T06:27:41.677Z,10.93
2019-03-15T06:30:12.658Z,8.85
2019-03-15T06:32:41.505Z,7.22
2019-03-15T06:35:10.693Z,11.48
2019-03-15T06:37:39.593Z,10.65
2019-03-15T06:40:13.342Z,14.20
2019-03-15T06:42:40.763Z,13.68
2019-03-15T06:45:13.691Z,17.95
2019-03-15T06:47:42.630Z,16.48
2019-03-15T06:50:11.677Z,26.30
2019-03-15T06:52:40.622Z,22.50
2019-03-15T06:55:09.947Z,17.75
2019-03-15T06:57:38.705Z,23.90
2019-03-15T07:00:15.430Z,18.05
2019-03-15T07:02:44.282Z,21.97
2019-03-15T07:05:13.260Z,23.12
2019-03-15T07:07:42.052Z,28.62
2019-03-15T07:10:11.581Z,24.63
2019-03-15T07:12:40.886Z,20.17
2019-03-15T07:15:11.339Z,23.50
2019-03-15T07:17:40.179Z,27.42
2019-03-15T07:20:14.387Z,29.35
2019-03-15T07:22:43.279Z,28.77
2019-03-15T07:25:12.872Z,45.03
2019-03-15T07:27:42.680Z,28.52
2019-03-15T07:30:13.622Z,27.50
2019-03-15T07:32:42.523Z,22.02
2019-03-15T07:35:11.418Z,28.15
2019-03-15T07:37:40.206Z,35.00
2019-03-15T07:40:10.629Z,21.35
2019-03-15T07:42:39.525Z,28.55
2019-03-15T07:45:11.285Z,39.15
2019-03-15T07:47:40.070Z,38.05
2019-03-15T07:50:13.915Z,31.57
2019-03-15T07:52:41.844Z,31.68
2019-03-15T07:55:11.234Z,34.58
2019-03-15T07:57:40.545Z,30.60
2019-03-15T08:00:12.095Z,25.05
2019-03-15T08:02:40.890Z,35.70
2019-03-15T08:05:09.978Z,41.33
2019-03-15T08:07:44.854Z,33.30
2019-03-15T08:10:12.825Z,26.65
2019-03-15T08:15:11.661Z,37.38
2019-03-15T08:17:40.473Z,36.50
2019-03-15T08:20:14.340Z,31.62
2019-03-15T08:22:43.480Z,34.43
2019-03-15T08:25:12.972Z,24.23
2019-03-15T08:27:42.085Z,40.65
2019-03-15T08:30:13.277Z,24.95
2019-03-15T08:32:43.902Z,33.38
2019-03-15T08:35:14.180Z,26.82
2019-03-15T08:37:43.065Z,33.45
2019-03-15T08:40:15.586Z,34.50
2019-03-15T08:45:20.593Z,39.48
2019-03-15T08:47:49.386Z,39.00
2019-03-15T08:50:19.084Z,38.63
2019-03-15T08:52:47.892Z,35.78
2019-03-15T08:55:16.870Z,43.80
2019-03-15T08:57:45.569Z,22.05
2019-03-15T09:00:18.750Z,40.63
2019-03-15T09:02:47.640Z,32.53
2019-03-15T09:05:16.819Z,32.85
2019-03-15T09:07:45.726Z,36.58
2019-03-15T09:10:23.354Z,25.23
2019-03-15T09:12:46.378Z,30.30
2019-03-15T09:15:15.372Z,34.98
2019-03-15T09:17:44.157Z,32.30
2019-03-15T09:20:15.390Z,31.60
2019-03-15T09:22:44.152Z,31.37
2019-03-15T09:25:19.799Z,28.73
2019-03-15T09:27:45.668Z,33.65
2019-03-15T09:30:23.106Z,35.83
2019-03-15T09:32:46.306Z,34.23
2019-03-15T09:35:15.213Z,27.20
2019-03-15T09:37:46.997Z,22.10
2019-03-15T09:40:17.996Z,50.63
2019-03-15T09:42:46.795Z,47.35
2019-03-15T09:45:17.196Z,24.57
2019-03-15T09:47:46.100Z,36.20
2019-03-15T09:50:26.530Z,37.60
2019-03-15T09:52:48.386Z,31.42
2019-03-15T09:55:17.175Z,35.95
2019-03-15T09:57:46.079Z,26.65
2019-03-15T10:00:18.784Z,29.20
2019-03-15T10:02:47.637Z,35.48
2019-03-15T10:05:16.529Z,25.65
2019-03-15T10:07:45.465Z,23.65
2019-03-15T10:10:20.774Z,19.87
2019-03-15T10:12:49.868Z,17.35
2019-03-15T10:15:19.061Z,25.27
2019-03-15T10:17:47.945Z,22.70
2019-03-15T10:20:16.837Z,22.93
2019-03-15T10:22:45.796Z,27.10
2019-03-15T10:25:15.705Z,18.35
2019-03-15T10:27:44.617Z,20.50
2019-03-15T10:30:20.164Z,13.58
2019-03-15T10:32:48.992Z,19.35
2019-03-15T10:35:17.961Z,19.45
2019-03-15T10:37:46.747Z,15.23
2019-03-15T10:40:17.591Z,25.12
2019-03-15T10:42:46.367Z,17.35
2019-03-15T10:45:15.259Z,13.25
2019-03-15T10:47:44.254Z,15.35
2019-03-15T10:50:17.505Z,10.75
2019-03-15T10:52:46.438Z,20.12
2019-03-15T10:55:15.432Z,10.72
2019-03-15T10:57:44.322Z,13.95
2019-03-15T11:00:18.230Z,15.68
2019-03-15T11:02:47.123Z,15.45
2019-03-15T11:05:16.015Z,11.18
2019-03-15T11:07:44.900Z,10.05
2019-03-15T11:10:14.101Z,14.33
2019-03-15T11:12:42.998Z,12.45
2019-03-15T11:15:15.775Z,7.37
2019-03-15T11:17:44.460Z,14.73
2019-03-15T11:20:13.850Z,6.17
2019-03-15T11:22:42.749Z,11.63
2019-03-15T11:25:12.246Z,10.25
2019-03-15T11:27:41.041Z,14.30
2019-03-15T11:30:13.750Z,10.53
2019-03-15T11:32:42.705Z,15.70
2019-03-15T11:35:12.516Z,10.68
2019-03-15T11:37:41.522Z,12.35
2019-03-15T11:40:15.202Z,13.85
2019-03-15T11:42:44.114Z,8.58
2019-03-15T11:45:13.924Z,9.03
2019-03-15T11:48:01.182Z,13.38
2019-03-15T11:50:18.668Z,15.55
2019-03-15T11:52:47.558Z,10.82
2019-03-15T11:55:16.452Z,11.75
2019-03-15T11:57:46.264Z,17.10
2019-03-15T12:00:18.779Z,13.00
2019-03-15T12:05:16.302Z,15.68
2019-03-15T12:07:45.212Z,11.75
2019-03-15T12:10:17.799Z,15.68
2019-03-15T12:12:46.571Z,12.68
2019-03-15T12:15:19.282Z,12.40
2019-03-15T12:17:48.342Z,13.28
2019-03-15T12:20:18.887Z,13.03
2019-03-15T12:22:47.658Z,11.73
2019-03-15T12:25:16.653Z,19.35
2019-03-15T12:27:45.443Z,16.12
2019-03-15T12:30:15.414Z,11.90
2019-03-15T12:32:44.350Z,13.98
2019-03-15T12:35:16.707Z,11.90
2019-03-15T12:37:45.541Z,17.55
2019-03-15T12:40:17.984Z,12.80
2019-03-15T12:42:46.863Z,11.55
2019-03-15T12:45:15.976Z,14.00
2019-03-15T12:47:44.863Z,16.30
2019-03-15T12:50:14.508Z,19.60
2019-03-15T12:52:47.651Z,15.80
2019-03-15T12:55:14.619Z,13.00
2019-03-15T12:57:43.504Z,18.95
2019-03-15T13:00:20.481Z,18.52
2019-03-15T13:02:49.587Z,13.35
2019-03-15T13:05:18.572Z,17.20
2019-03-15T13:07:47.545Z,19.02
2019-03-15T13:10:18.066Z,21.97
2019-03-15T13:12:46.870Z,24.15
2019-03-15T13:15:16.750Z,17.55
2019-03-15T13:17:46.085Z,19.82
2019-03-15T13:20:17.158Z,19.32
2019-03-15T13:22:46.121Z,18.77
2019-03-15T13:25:15.010Z,19.73
2019-03-15T13:27:43.904Z,16.73
2019-03-15T13:30:14.530Z,18.37
2019-03-15T13:32:43.317Z,19.65
2019-03-15T13:35:12.297Z,29.75
2019-03-15T13:37:42.927Z,18.75
2019-03-15T13:40:13.156Z,24.00
2019-03-15T13:42:42.157Z,22.58
2019-03-15T13:45:12.466Z,17.05
2019-03-15T13:47:41.378Z,18.45
2019-03-15T13:50:15.939Z,20.72
2019-03-15T13:52:44.786Z,19.67
2019-03-15T13:55:13.782Z,14.35
2019-03-15T13:57:42.911Z,18.92
2019-03-15T14:00:14.070Z,23.20
2019-03-15T14:02:42.911Z,27.05
2019-03-15T14:05:11.807Z,24.60
2019-03-15T14:07:40.803Z,16.45
2019-03-15T14:10:18.999Z,16.35
2019-03-15T14:12:47.903Z,21.68
2019-03-15T14:15:18.948Z,17.48
2019-03-15T14:17:47.878Z,25.97
2019-03-15T14:20:16.918Z,15.25
2019-03-15T14:22:45.811Z,12.63
2019-03-15T14:25:26.372Z,16.17
2019-03-15T14:27:55.364Z,22.75
2019-03-15T14:30:24.357Z,21.07
2019-03-15T14:32:53.193Z,22.60
2019-03-15T14:35:22.059Z,16.85
2019-03-15T14:37:51.041Z,17.98
2019-03-15T14:40:20.608Z,22.70
2019-03-15T14:42:49.684Z,19.45
2019-03-15T14:45:18.702Z,27.37
2019-03-15T14:47:47.724Z,28.75
2019-03-15T14:50:16.591Z,22.10
2019-03-15T14:52:45.750Z,26.40
2019-03-15T14:55:16.296Z,22.50
2019-03-15T14:57:53.591Z,25.05
2019-03-15T15:00:20.773Z,28.32
2019-03-15T15:02:49.873Z,27.48
2019-03-15T15:05:18.668Z,22.02
2019-03-15T15:07:47.658Z,31.73
2019-03-15T15:10:17.549Z,26.40
2019-03-15T15:12:46.456Z,28.07
2019-03-15T15:15:19.453Z,23.77
2019-03-15T15:17:48.336Z,23.10
2019-03-15T15:20:17.436Z,18.37
2019-03-15T15:22:47.444Z,17.82
2019-03-15T15:25:17.464Z,28.23
2019-03-15T15:27:46.464Z,17.02
2019-03-15T15:30:19.145Z,17.87
2019-03-15T15:32:48.027Z,13.05
2019-03-15T15:35:16.947Z,16.10
2019-03-15T15:37:45.914Z,20.48
2019-03-15T15:40:19.410Z,19.73
2019-03-15T15:42:48.411Z,13.45
2019-03-15T15:45:17.293Z,16.02
2019-03-15T15:47:46.179Z,22.50
2019-03-15T15:50:15.860Z,13.62
2019-03-15T15:52:44.887Z,20.15
2019-03-15T15:55:15.911Z,24.40
2019-03-15T15:57:44.813Z,15.40
2019-03-15T16:00:18.371Z,17.82
2019-03-15T16:02:47.516Z,14.93
2019-03-15T16:05:16.502Z,20.57
2019-03-15T16:07:46.840Z,18.82
2019-03-15T16:10:18.005Z,19.67
2019-03-15T16:12:46.574Z,18.27
2019-03-15T16:15:17.594Z,15.48
2019-03-15T16:17:46.493Z,15.72
2019-03-15T16:20:15.595Z,16.45
2019-03-15T16:22:44.694Z,20.50
2019-03-15T16:25:13.933Z,22.85
2019-03-15T16:27:42.883Z,23.20
2019-03-15T16:30:15.037Z,19.12
2019-03-15T16:32:46.058Z,14.73
2019-03-15T16:35:15.654Z,22.62
2019-03-15T16:37:45.594Z,18.95
2019-03-15T16:40:15.739Z,25.80
2019-03-15T16:42:44.620Z,18.70
2019-03-15T16:45:19.535Z,28.90
2019-03-15T16:47:48.515Z,22.87
2019-03-15T16:50:18.015Z,33.35
2019-03-15T16:52:46.719Z,24.63
2019-03-15T16:55:15.609Z,31.05
2019-03-15T16:57:44.400Z,32.83
2019-03-15T17:00:16.721Z,27.73
2019-03-15T17:02:45.560Z,31.50
2019-03-15T17:05:15.174Z,24.40
2019-03-15T17:07:44.054Z,28.12
2019-03-15T17:10:14.584Z,26.20
2019-03-15T17:12:43.478Z,30.50
2019-03-15T17:15:15.131Z,27.45
2019-03-15T17:17:44.019Z,21.05
2019-03-15T17:20:13.117Z,33.25
2019-03-15T17:22:42.008Z,32.25
2019-03-15T17:25:12.303Z,23.10
2019-03-15T17:27:41.223Z,31.62
2019-03-15T17:30:16.967Z,32.15
2019-03-15T17:32:45.871Z,23.27
2019-03-15T17:35:15.939Z,25.23
2019-03-15T17:37:44.973Z,21.33
2019-03-15T17:40:21.753Z,22.48
2019-03-15T17:42:50.840Z,22.73
2019-03-15T17:45:19.964Z,20.80
2019-03-15T17:47:49.147Z,22.67
2019-03-15T17:50:22.153Z,22.05
2019-03-15T17:52:51.109Z,24.87
2019-03-15T17:55:20.214Z,23.52
2019-03-15T17:57:49.213Z,27.42
2019-03-15T18:00:37.349Z,21.42
2019-03-15T18:03:19.787Z,27.77
2019-03-15T18:05:38.200Z,24.20
2019-03-15T18:08:07.089Z,25.27
2019-03-15T18:10:36.090Z,25.55
2019-03-15T18:13:05.289Z,27.70
2019-03-15T18:15:34.174Z,28.30
2019-03-15T18:18:03.063Z,20.92
2019-03-15T18:20:32.054Z,24.43
2019-03-15T18:23:00.945Z,27.70
2019-03-15T18:25:29.940Z,23.45
2019-03-15T18:27:58.831Z,25.02
2019-03-15T18:30:27.724Z,26.80
2019-03-15T18:32:56.619Z,24.20
2019-03-15T18:35:33.439Z,22.02
2019-03-15T18:37:56.031Z,28.65
2019-03-15T18:40:24.816Z,28.38
2019-03-15T18:42:53.817Z,22.85
2019-03-15T18:45:22.900Z,31.05
2019-03-15T18:47:51.902Z,35.03
2019-03-15T18:50:24.885Z,23.22
2019-03-15T18:52:53.865Z,33.85
2019-03-15T18:55:22.862Z,29.42
2019-03-15T18:57:52.587Z,31.60
2019-03-15T19:00:25.300Z,28.65
2019-03-15T19:02:54.255Z,34.48
2019-03-15T19:05:24.070Z,33.25
2019-03-15T19:07:52.955Z,36.13
2019-03-15T19:10:21.956Z,23.60
2019-03-15T19:12:54.365Z,30.43
2019-03-15T19:17:51.492Z,19.37
2019-03-15T19:20:20.382Z,34.03
2019-03-15T19:22:49.267Z,27.15
2019-03-15T19:25:18.158Z,20.62
2019-03-15T19:27:46.945Z,25.35
2019-03-15T19:30:17.086Z,26.42
2019-03-15T19:32:45.957Z,17.82
2019-03-15T19:35:15.054Z,18.48
2019-03-15T19:37:43.951Z,17.50
2019-03-15T19:40:15.291Z,25.45
2019-03-15T19:42:45.543Z,26.82
2019-03-15T19:45:16.453Z,26.77
2019-03-15T19:47:45.556Z,22.95
2019-03-15T19:50:17.089Z,22.35
2019-03-15T19:52:45.992Z,23.95
2019-03-15T19:55:16.008Z,27.42
2019-03-15T19:57:45.207Z,30.08
2019-03-15T20:00:16.671Z,25.95
2019-03-15T20:02:45.960Z,32.65
2019-03-15T20:05:15.413Z,29.95
2019-03-15T20:07:45.438Z,27.70
2019-03-15T20:10:17.311Z,27.67
2019-03-15T20:12:47.608Z,30.90
2019-03-15T20:15:17.737Z,37.23
2019-03-15T20:17:46.589Z,31.82
2019-03-15T20:20:17.132Z,35.65
2019-03-15T20:22:46.079Z,36.80
2019-03-15T20:25:18.687Z,34.80
2019-03-15T20:27:47.660Z,30.80
2019-03-15T20:30:24.566Z,33.10
2019-03-15T20:32:55.538Z,23.45
2019-03-15T20:35:31.543Z,30.45
2019-03-15T20:38:06.197Z,20.68
2019-03-15T20:40:40.503Z,27.95
2019-03-15T20:43:12.613Z,31.73
2019-03-15T20:45:49.043Z,28.27
2019-03-15T20:48:25.129Z,39.40
2019-03-15T20:51:22.375Z,31.15
2019-03-15T20:53:59.640Z,24.63
2019-03-15T20:56:56.296Z,33.40
2019-03-15T20:59:30.685Z,26.52
2019-03-15T21:02:23.657Z,45.90
2019-03-15T21:04:57.215Z,31.48
2019-03-15T21:07:29.815Z,31.93
2019-03-15T21:10:04.140Z,42.25
2019-03-15T21:12:37.703Z,33.98
2019-03-15T21:15:18.627Z,35.08
2019-03-15T21:17:51.655Z,36.60
2019-03-15T21:20:22.859Z,35.90
2019-03-15T21:22:55.484Z,25.92
2019-03-15T21:25:29.022Z,34.05
2019-03-15T21:28:01.347Z,28.07
2019-03-15T21:30:47.543Z,31.33
2019-03-15T21:33:10.293Z,28.95
2019-03-15T21:35:43.943Z,29.57
2019-03-15T21:38:18.546Z,24.63
2019-03-15T21:40:47.542Z,34.00
2019-03-15T21:43:23.887Z,30.02
2019-03-15T21:45:59.415Z,25.68
2019-03-15T21:48:28.958Z,26.75
2019-03-15T21:50:59.897Z,36.75
2019-03-15T21:53:28.802Z,28.65
2019-03-15T21:55:57.681Z,28.80
2019-03-15T21:58:26.776Z,34.95
2019-03-15T22:01:02.418Z,32.53
2019-03-15T22:03:26.287Z,28.17
2019-03-15T22:05:55.392Z,32.93
2019-03-15T22:08:24.594Z,32.67
2019-03-15T22:10:53.480Z,35.28
2019-03-15T22:13:22.977Z,33.95
2019-03-15T22:18:26.395Z,15.30
2019-03-15T22:20:55.194Z,4.80
2019-03-15T22:23:23.973Z,7.45
2019-03-15T22:25:52.863Z,6.95
2019-03-15T22:28:21.754Z,8.95
2019-03-15T22:30:50.750Z,6.67
2019-03-15T22:33:19.538Z,7.12
2019-03-15T22:35:48.528Z,10.40
2019-03-15T22:38:26.066Z,13.50
2019-03-15T22:40:50.083Z,9.08
2019-03-15T22:43:19.092Z,10.80
2019-03-15T22:45:48.015Z,10.88
2019-03-15T22:48:16.870Z,11.53
2019-03-15T22:50:45.665Z,10.90
2019-03-15T22:53:14.762Z,13.40
2019-03-15T22:55:43.543Z,7.75
2019-03-15T22:58:12.874Z,10.93
2019-03-15T23:00:42.043Z,9.40
2019-03-15T23:03:11.135Z,14.68
2019-03-15T23:05:40.134Z,13.08
2019-03-15T23:08:09.612Z,14.50
2019-03-15T23:10:38.715Z,14.38
2019-03-15T23:13:07.827Z,11.00
2019-03-15T23:15:37.578Z,9.20
2019-03-15T23:18:06.425Z,10.88
2019-03-15T23:20:35.215Z,14.68
2019-03-15T23:23:04.547Z,13.70
2019-03-15T23:25:33.355Z,11.18
2019-03-15T23:28:02.396Z,10.23
2019-03-15T23:30:31.286Z,12.93
2019-03-15T23:33:00.265Z,13.40
2019-03-15T23:35:29.271Z,14.65
2019-03-15T23:37:58.674Z,16.17
2019-03-15T23:40:27.568Z,9.13
2019-03-15T23:42:56.661Z,9.03
2019-03-15T23:45:25.846Z,9.88
2019-03-15T23:47:54.648Z,11.95
2019-03-15T23:50:23.639Z,12.13
2019-03-15T23:52:52.530Z,14.18
2019-03-15T23:55:21.319Z,13.53
2019-03-15T23:57:50.108Z,5.85
